sensor_id;sensor_type;location;lat;lon;timestamp;temperature;humidity
4390;DHT22;2209;48.982;8.406;2023-11-18T00:01:13;8.50;99.90
4390;DHT22;2209;48.982;8.406;2023-11-18T00:03:35;8.50;99.90
4390;DHT22;2209;48.982;8.406;2023-11-18T00:05:57;8.40;99.90
4390;DHT22;2209;48.982;8.406;2023-11-18T00:08:19;8.50;99.90
4390;DHT22;2209;48.982;8.406;2023-11-18T00:10:41;8.50;99.90
4390;DHT22;2209;48.982;8.406;2023-11-18T00:13:03;8.50;99.90
4390;DHT22;2209;48.982;8.406;2023-11-18T00:15:27;8.50;99.90
4390;DHT22;2209;48.982;8.406;2023-11-18T00:17:49;8.50;99.90
4390;DHT22;2209;48.982;8.406;2023-11-18T00:20:11;8.50;99.90
4390;DHT22;2209;48.982;8.406;2023-11-18T00:22:34;8.50;99.90
4390;DHT22;2209;48.982;8.406;2023-11-18T00:24:56;8.50;99.90
4390;DHT22;2209;48.982;8.406;2023-11-18T00:27:18;8.40;99.90
4390;DHT22;2209;48.982;8.406;2023-11-18T00:29:40;8.40;99.90
4390;DHT22;2209;48.982;8.406;2023-11-18T00:32:06;8.50;99.90
4390;DHT22;2209;48.982;8.406;2023-11-18T00:34:28;8.40;99.90
4390;DHT22;2209;48.982;8.406;2023-11-18T00:36:50;8.40;99.90
4390;DHT22;2209;48.982;8.406;2023-11-18T00:39:12;8.40;99.90
4390;DHT22;2209;48.982;8.406;2023-11-18T00:41:34;8.40;99.90
4390;DHT22;2209;48.982;8.406;2023-11-18T00:43:57;8.40;99.90
4390;DHT22;2209;48.982;8.406;2023-11-18T00:46:19;8.40;99.90
4390;DHT22;2209;48.982;8.406;2023-11-18T00:48:42;8.40;99.90
4390;DHT22;2209;48.982;8.406;2023-11-18T00:51:06;8.40;99.90
4390;DHT22;2209;48.982;8.406;2023-11-18T00:53:28;8.40;99.90
4390;DHT22;2209;48.982;8.406;2023-11-18T00:55:50;8.40;99.90
4390;DHT22;2209;48.982;8.406;2023-11-18T00:58:12;8.40;99.90
4390;DHT22;2209;48.982;8.406;2023-11-18T01:00:34;8.40;99.90
4390;DHT22;2209;48.982;8.406;2023-11-18T01:02:57;8.40;99.90
4390;DHT22;2209;48.982;8.406;2023-11-18T01:05:20;8.40;99.90
4390;DHT22;2209;48.982;8.406;2023-11-18T01:07:42;8.40;99.90
4390;DHT22;2209;48.982;8.406;2023-11-18T01:10:05;8.40;99.90
4390;DHT22;2209;48.982;8.406;2023-11-18T01:12:27;8.40;99.90
4390;DHT22;2209;48.982;8.406;2023-11-18T01:14:49;8.40;99.90
4390;DHT22;2209;48.982;8.406;2023-11-18T01:17:11;8.40;99.90
4390;DHT22;2209;48.982;8.406;2023-11-18T01:19:34;8.40;99.90
4390;DHT22;2209;48.982;8.406;2023-11-18T01:21:58;8.40;99.90
4390;DHT22;2209;48.982;8.406;2023-11-18T01:24:20;8.40;99.90
4390;DHT22;2209;48.982;8.406;2023-11-18T01:26:42;8.40;99.90
4390;DHT22;2209;48.982;8.406;2023-11-18T01:29:04;8.40;99.90
4390;DHT22;2209;48.982;8.406;2023-11-18T01:31:26;8.40;99.90
4390;DHT22;2209;48.982;8.406;2023-11-18T01:33:48;8.40;99.90
4390;DHT22;2209;48.982;8.406;2023-11-18T01:36:11;8.40;99.90
4390;DHT22;2209;48.982;8.406;2023-11-18T01:38:34;8.40;99.90
4390;DHT22;2209;48.982;8.406;2023-11-18T01:40:56;8.40;99.90
4390;DHT22;2209;48.982;8.406;2023-11-18T01:43:18;8.40;99.90
4390;DHT22;2209;48.982;8.406;2023-11-18T01:45:43;8.40;99.90
4390;DHT22;2209;48.982;8.406;2023-11-18T01:48:05;8.40;99.90
4390;DHT22;2209;48.982;8.406;2023-11-18T01:50:27;8.40;99.90
4390;DHT22;2209;48.982;8.406;2023-11-18T01:52:51;8.40;99.90
4390;DHT22;2209;48.982;8.406;2023-11-18T01:55:15;8.40;99.90
4390;DHT22;2209;48.982;8.406;2023-11-18T01:57:37;8.40;99.90
4390;DHT22;2209;48.982;8.406;2023-11-18T02:00:01;8.30;99.90
4390;DHT22;2209;48.982;8.406;2023-11-18T02:02:27;8.30;99.90
4390;DHT22;2209;48.982;8.406;2023-11-18T02:04:49;8.30;99.90
4390;DHT22;2209;48.982;8.406;2023-11-18T02:07:11;8.30;99.90
4390;DHT22;2209;48.982;8.406;2023-11-18T02:09:36;8.30;99.90
4390;DHT22;2209;48.982;8.406;2023-11-18T02:12:06;8.30;99.90
4390;DHT22;2209;48.982;8.406;2023-11-18T02:14:32;8.30;99.90
4390;DHT22;2209;48.982;8.406;2023-11-18T02:16:59;8.30;99.90
4390;DHT22;2209;48.982;8.406;2023-11-18T02:19:24;8.30;99.90
4390;DHT22;2209;48.982;8.406;2023-11-18T02:21:47;8.30;99.90
4390;DHT22;2209;48.982;8.406;2023-11-18T02:24:10;8.30;99.90
4390;DHT22;2209;48.982;8.406;2023-11-18T02:26:33;8.30;99.90
4390;DHT22;2209;48.982;8.406;2023-11-18T02:28:56;8.40;99.90
4390;DHT22;2209;48.982;8.406;2023-11-18T02:31:23;8.40;99.90
4390;DHT22;2209;48.982;8.406;2023-11-18T02:33:53;8.40;99.90
4390;DHT22;2209;48.982;8.406;2023-11-18T02:36:23;8.40;99.90
4390;DHT22;2209;48.982;8.406;2023-11-18T02:38:53;8.40;99.90
4390;DHT22;2209;48.982;8.406;2023-11-18T02:41:17;8.40;99.90
4390;DHT22;2209;48.982;8.406;2023-11-18T02:43:41;8.40;99.90
4390;DHT22;2209;48.982;8.406;2023-11-18T02:46:05;8.40;99.90
4390;DHT22;2209;48.982;8.406;2023-11-18T02:48:28;8.50;99.90
4390;DHT22;2209;48.982;8.406;2023-11-18T02:50:52;8.40;99.90
4390;DHT22;2209;48.982;8.406;2023-11-18T02:53:15;8.40;99.90
4390;DHT22;2209;48.982;8.406;2023-11-18T02:55:37;8.40;99.90
4390;DHT22;2209;48.982;8.406;2023-11-18T02:57:59;8.40;99.90
4390;DHT22;2209;48.982;8.406;2023-11-18T03:00:22;8.40;99.90
4390;DHT22;2209;48.982;8.406;2023-11-18T03:02:45;8.40;99.90
4390;DHT22;2209;48.982;8.406;2023-11-18T03:05:08;8.40;99.90
4390;DHT22;2209;48.982;8.406;2023-11-18T03:07:32;8.40;99.90
4390;DHT22;2209;48.982;8.406;2023-11-18T03:09:54;8.40;99.90
4390;DHT22;2209;48.982;8.406;2023-11-18T03:12:17;8.30;99.90
4390;DHT22;2209;48.982;8.406;2023-11-18T03:14:39;8.30;99.90
4390;DHT22;2209;48.982;8.406;2023-11-18T03:17:04;8.30;99.90
4390;DHT22;2209;48.982;8.406;2023-11-18T03:19:27;8.30;99.90
4390;DHT22;2209;48.982;8.406;2023-11-18T03:21:50;8.40;99.90
4390;DHT22;2209;48.982;8.406;2023-11-18T03:24:13;8.30;99.90
4390;DHT22;2209;48.982;8.406;2023-11-18T03:26:37;8.30;99.90
4390;DHT22;2209;48.982;8.406;2023-11-18T03:28:59;8.30;99.90
4390;DHT22;2209;48.982;8.406;2023-11-18T03:31:21;8.30;99.90
4390;DHT22;2209;48.982;8.406;2023-11-18T03:33:44;8.30;99.90
4390;DHT22;2209;48.982;8.406;2023-11-18T03:36:07;8.30;99.90
4390;DHT22;2209;48.982;8.406;2023-11-18T03:38:29;8.30;99.90
4390;DHT22;2209;48.982;8.406;2023-11-18T03:40:51;8.30;99.90
4390;DHT22;2209;48.982;8.406;2023-11-18T03:43:14;8.30;99.90
4390;DHT22;2209;48.982;8.406;2023-11-18T03:45:36;8.30;99.90
4390;DHT22;2209;48.982;8.406;2023-11-18T03:47:59;8.30;99.90
4390;DHT22;2209;48.982;8.406;2023-11-18T03:50:23;8.30;99.90
4390;DHT22;2209;48.982;8.406;2023-11-18T03:52:45;8.30;99.90
4390;DHT22;2209;48.982;8.406;2023-11-18T03:55:08;8.30;99.90
4390;DHT22;2209;48.982;8.406;2023-11-18T03:57:30;8.30;99.90
4390;DHT22;2209;48.982;8.406;2023-11-18T03:59:52;8.30;99.90
4390;DHT22;2209;48.982;8.406;2023-11-18T04:02:14;8.30;99.90
4390;DHT22;2209;48.982;8.406;2023-11-18T04:04:36;8.30;99.90
4390;DHT22;2209;48.982;8.406;2023-11-18T04:07:00;8.20;99.90
4390;DHT22;2209;48.982;8.406;2023-11-18T04:09:22;8.30;99.90
4390;DHT22;2209;48.982;8.406;2023-11-18T04:11:44;8.20;99.90
4390;DHT22;2209;48.982;8.406;2023-11-18T04:14:06;8.20;99.90
4390;DHT22;2209;48.982;8.406;2023-11-18T04:16:28;8.20;99.90
4390;DHT22;2209;48.982;8.406;2023-11-18T04:18:50;8.20;99.90
4390;DHT22;2209;48.982;8.406;2023-11-18T04:21:13;8.20;99.90
4390;DHT22;2209;48.982;8.406;2023-11-18T04:23:38;8.20;99.90
4390;DHT22;2209;48.982;8.406;2023-11-18T04:26:00;8.10;99.90
4390;DHT22;2209;48.982;8.406;2023-11-18T04:28:23;8.10;99.90
4390;DHT22;2209;48.982;8.406;2023-11-18T04:30:44;8.10;99.90
4390;DHT22;2209;48.982;8.406;2023-11-18T04:33:06;8.10;99.90
4390;DHT22;2209;48.982;8.406;2023-11-18T04:35:29;8.10;99.90
4390;DHT22;2209;48.982;8.406;2023-11-18T04:37:51;8.10;99.90
4390;DHT22;2209;48.982;8.406;2023-11-18T04:40:14;8.20;99.90
4390;DHT22;2209;48.982;8.406;2023-11-18T04:42:39;8.20;99.90
4390;DHT22;2209;48.982;8.406;2023-11-18T04:45:01;8.20;99.90
4390;DHT22;2209;48.982;8.406;2023-11-18T04:47:23;8.20;99.90
4390;DHT22;2209;48.982;8.406;2023-11-18T04:49:45;8.20;99.90
4390;DHT22;2209;48.982;8.406;2023-11-18T04:52:07;8.20;99.90
4390;DHT22;2209;48.982;8.406;2023-11-18T04:54:29;8.20;99.90
4390;DHT22;2209;48.982;8.406;2023-11-18T04:56:53;8.20;99.90
4390;DHT22;2209;48.982;8.406;2023-11-18T04:59:15;8.20;99.90
4390;DHT22;2209;48.982;8.406;2023-11-18T05:01:38;8.20;99.90
4390;DHT22;2209;48.982;8.406;2023-11-18T05:04:01;8.20;99.90
4390;DHT22;2209;48.982;8.406;2023-11-18T05:06:23;8.20;99.90
4390;DHT22;2209;48.982;8.406;2023-11-18T05:08:45;8.20;99.90
4390;DHT22;2209;48.982;8.406;2023-11-18T05:11:07;8.20;99.90
4390;DHT22;2209;48.982;8.406;2023-11-18T05:13:31;8.30;99.90
4390;DHT22;2209;48.982;8.406;2023-11-18T05:15:54;8.30;99.90
4390;DHT22;2209;48.982;8.406;2023-11-18T05:18:16;8.30;99.90
4390;DHT22;2209;48.982;8.406;2023-11-18T05:20:38;8.30;99.90
4390;DHT22;2209;48.982;8.406;2023-11-18T05:23:00;8.30;99.90
4390;DHT22;2209;48.982;8.406;2023-11-18T05:25:24;8.30;99.90
4390;DHT22;2209;48.982;8.406;2023-11-18T05:27:46;8.30;99.90
4390;DHT22;2209;48.982;8.406;2023-11-18T05:30:12;8.20;99.90
4390;DHT22;2209;48.982;8.406;2023-11-18T05:32:34;8.20;99.90
4390;DHT22;2209;48.982;8.406;2023-11-18T05:34:57;8.20;99.90
4390;DHT22;2209;48.982;8.406;2023-11-18T05:37:19;8.20;99.90
4390;DHT22;2209;48.982;8.406;2023-11-18T05:39:41;8.20;99.90
4390;DHT22;2209;48.982;8.406;2023-11-18T05:42:05;8.20;99.90
4390;DHT22;2209;48.982;8.406;2023-11-18T05:44:27;8.20;99.90
4390;DHT22;2209;48.982;8.406;2023-11-18T05:46:59;8.10;99.90
4390;DHT22;2209;48.982;8.406;2023-11-18T05:49:22;8.10;99.90
4390;DHT22;2209;48.982;8.406;2023-11-18T05:51:45;8.10;99.90
4390;DHT22;2209;48.982;8.406;2023-11-18T05:54:07;8.10;99.90
4390;DHT22;2209;48.982;8.406;2023-11-18T05:56:29;8.10;99.90
4390;DHT22;2209;48.982;8.406;2023-11-18T05:58:52;8.00;99.90
4390;DHT22;2209;48.982;8.406;2023-11-18T06:01:15;8.00;99.90
4390;DHT22;2209;48.982;8.406;2023-11-18T06:03:39;8.00;99.90
4390;DHT22;2209;48.982;8.406;2023-11-18T06:06:02;8.00;99.90
4390;DHT22;2209;48.982;8.406;2023-11-18T06:08:24;8.00;99.90
4390;DHT22;2209;48.982;8.406;2023-11-18T06:10:46;8.00;99.90
4390;DHT22;2209;48.982;8.406;2023-11-18T06:13:09;8.10;99.90
4390;DHT22;2209;48.982;8.406;2023-11-18T06:15:33;8.10;99.90
4390;DHT22;2209;48.982;8.406;2023-11-18T06:17:56;8.10;99.90
4390;DHT22;2209;48.982;8.406;2023-11-18T06:20:20;8.10;99.90
4390;DHT22;2209;48.982;8.406;2023-11-18T06:22:44;8.10;99.90
4390;DHT22;2209;48.982;8.406;2023-11-18T06:25:07;8.10;99.90
4390;DHT22;2209;48.982;8.406;2023-11-18T06:27:29;8.00;99.90
4390;DHT22;2209;48.982;8.406;2023-11-18T06:29:51;8.00;99.90
4390;DHT22;2209;48.982;8.406;2023-11-18T06:32:15;8.00;99.90
4390;DHT22;2209;48.982;8.406;2023-11-18T06:34:37;8.00;99.90
4390;DHT22;2209;48.982;8.406;2023-11-18T06:37:01;8.00;99.90
4390;DHT22;2209;48.982;8.406;2023-11-18T06:39:24;7.90;99.90
4390;DHT22;2209;48.982;8.406;2023-11-18T06:41:50;7.90;99.90
4390;DHT22;2209;48.982;8.406;2023-11-18T06:44:12;7.90;99.90
4390;DHT22;2209;48.982;8.406;2023-11-18T06:46:39;7.90;99.90
4390;DHT22;2209;48.982;8.406;2023-11-18T06:49:02;7.90;99.90
4390;DHT22;2209;48.982;8.406;2023-11-18T06:51:27;7.80;99.90
4390;DHT22;2209;48.982;8.406;2023-11-18T06:53:51;7.80;99.90
4390;DHT22;2209;48.982;8.406;2023-11-18T06:56:15;7.80;99.90
4390;DHT22;2209;48.982;8.406;2023-11-18T06:58:38;7.80;99.90
4390;DHT22;2209;48.982;8.406;2023-11-18T07:01:00;7.80;99.90
4390;DHT22;2209;48.982;8.406;2023-11-18T07:03:22;7.80;99.90
4390;DHT22;2209;48.982;8.406;2023-11-18T07:05:44;7.80;99.90
4390;DHT22;2209;48.982;8.406;2023-11-18T07:08:06;7.80;99.90
4390;DHT22;2209;48.982;8.406;2023-11-18T07:10:30;7.80;99.90
4390;DHT22;2209;48.982;8.406;2023-11-18T07:12:52;7.90;99.90
4390;DHT22;2209;48.982;8.406;2023-11-18T07:15:15;7.90;99.90
4390;DHT22;2209;48.982;8.406;2023-11-18T07:17:37;7.90;99.90
4390;DHT22;2209;48.982;8.406;2023-11-18T07:19:59;7.90;99.90
4390;DHT22;2209;48.982;8.406;2023-11-18T07:22:21;7.90;99.90
4390;DHT22;2209;48.982;8.406;2023-11-18T07:24:43;7.90;99.90
4390;DHT22;2209;48.982;8.406;2023-11-18T07:27:06;7.90;99.90
4390;DHT22;2209;48.982;8.406;2023-11-18T07:29:32;7.90;99.90
4390;DHT22;2209;48.982;8.406;2023-11-18T07:31:54;8.00;99.90
4390;DHT22;2209;48.982;8.406;2023-11-18T07:34:16;7.90;99.90
4390;DHT22;2209;48.982;8.406;2023-11-18T07:36:38;8.00;99.90
4390;DHT22;2209;48.982;8.406;2023-11-18T07:39:00;8.00;99.90
4390;DHT22;2209;48.982;8.406;2023-11-18T07:41:24;8.00;99.90
4390;DHT22;2209;48.982;8.406;2023-11-18T07:43:49;8.00;99.90
4390;DHT22;2209;48.982;8.406;2023-11-18T07:46:12;8.00;99.90
4390;DHT22;2209;48.982;8.406;2023-11-18T07:48:34;8.00;99.90
4390;DHT22;2209;48.982;8.406;2023-11-18T07:50:56;8.00;99.90
4390;DHT22;2209;48.982;8.406;2023-11-18T07:53:18;8.00;99.90
4390;DHT22;2209;48.982;8.406;2023-11-18T07:55:40;8.00;99.90
4390;DHT22;2209;48.982;8.406;2023-11-18T07:58:02;8.00;99.90
4390;DHT22;2209;48.982;8.406;2023-11-18T08:00:27;8.00;99.90
4390;DHT22;2209;48.982;8.406;2023-11-18T08:02:51;8.00;99.90
4390;DHT22;2209;48.982;8.406;2023-11-18T08:05:15;8.00;99.90
4390;DHT22;2209;48.982;8.406;2023-11-18T08:07:39;8.00;99.90
4390;DHT22;2209;48.982;8.406;2023-11-18T08:10:02;8.00;99.90
4390;DHT22;2209;48.982;8.406;2023-11-18T08:12:25;8.00;99.90
4390;DHT22;2209;48.982;8.406;2023-11-18T08:14:46;8.00;99.90
4390;DHT22;2209;48.982;8.406;2023-11-18T08:17:10;8.00;99.90
4390;DHT22;2209;48.982;8.406;2023-11-18T08:19:33;8.10;99.90
4390;DHT22;2209;48.982;8.406;2023-11-18T08:21:56;8.00;99.90
4390;DHT22;2209;48.982;8.406;2023-11-18T08:24:19;8.10;99.90
4390;DHT22;2209;48.982;8.406;2023-11-18T08:26:42;8.10;99.90
4390;DHT22;2209;48.982;8.406;2023-11-18T08:29:04;8.10;99.90
4390;DHT22;2209;48.982;8.406;2023-11-18T08:31:27;8.10;99.90
4390;DHT22;2209;48.982;8.406;2023-11-18T08:33:51;8.10;99.90
4390;DHT22;2209;48.982;8.406;2023-11-18T08:36:15;8.10;99.90
4390;DHT22;2209;48.982;8.406;2023-11-18T08:38:38;8.10;99.90
4390;DHT22;2209;48.982;8.406;2023-11-18T08:41:01;8.20;99.90
4390;DHT22;2209;48.982;8.406;2023-11-18T08:43:24;8.20;99.90
4390;DHT22;2209;48.982;8.406;2023-11-18T08:45:46;8.20;99.90
4390;DHT22;2209;48.982;8.406;2023-11-18T08:48:10;8.20;99.90
4390;DHT22;2209;48.982;8.406;2023-11-18T08:50:35;8.30;99.90
4390;DHT22;2209;48.982;8.406;2023-11-18T08:52:57;8.30;99.90
4390;DHT22;2209;48.982;8.406;2023-11-18T08:55:20;8.30;99.90
4390;DHT22;2209;48.982;8.406;2023-11-18T08:57:44;8.20;99.90
4390;DHT22;2209;48.982;8.406;2023-11-18T09:00:14;8.20;99.90
4390;DHT22;2209;48.982;8.406;2023-11-18T09:02:57;8.30;99.90
4390;DHT22;2209;48.982;8.406;2023-11-18T09:05:22;8.30;99.90
4390;DHT22;2209;48.982;8.406;2023-11-18T09:07:45;8.30;99.90
4390;DHT22;2209;48.982;8.406;2023-11-18T09:10:09;8.30;99.90
4390;DHT22;2209;48.982;8.406;2023-11-18T09:12:32;8.30;99.90
4390;DHT22;2209;48.982;8.406;2023-11-18T09:14:55;8.30;99.90
4390;DHT22;2209;48.982;8.406;2023-11-18T09:17:18;8.30;99.90
4390;DHT22;2209;48.982;8.406;2023-11-18T09:19:43;8.30;99.90
4390;DHT22;2209;48.982;8.406;2023-11-18T09:22:06;8.40;99.90
4390;DHT22;2209;48.982;8.406;2023-11-18T09:24:29;8.40;99.90
4390;DHT22;2209;48.982;8.406;2023-11-18T09:26:52;8.40;99.90
4390;DHT22;2209;48.982;8.406;2023-11-18T09:29:15;8.40;99.90
4390;DHT22;2209;48.982;8.406;2023-11-18T09:31:38;8.40;99.90
4390;DHT22;2209;48.982;8.406;2023-11-18T09:34:03;8.40;99.90
4390;DHT22;2209;48.982;8.406;2023-11-18T09:36:27;8.40;99.90
4390;DHT22;2209;48.982;8.406;2023-11-18T09:38:50;8.50;99.90
4390;DHT22;2209;48.982;8.406;2023-11-18T09:41:14;8.50;99.90
4390;DHT22;2209;48.982;8.406;2023-11-18T09:43:37;8.50;99.90
4390;DHT22;2209;48.982;8.406;2023-11-18T09:46:05;8.50;99.90
4390;DHT22;2209;48.982;8.406;2023-11-18T09:48:33;8.50;99.90
4390;DHT22;2209;48.982;8.406;2023-11-18T09:51:02;8.50;99.90
4390;DHT22;2209;48.982;8.406;2023-11-18T09:53:26;8.50;99.90
4390;DHT22;2209;48.982;8.406;2023-11-18T09:55:56;8.60;99.90
4390;DHT22;2209;48.982;8.406;2023-11-18T09:58:23;8.60;99.90
4390;DHT22;2209;48.982;8.406;2023-11-18T10:00:48;8.70;99.90
4390;DHT22;2209;48.982;8.406;2023-11-18T10:03:13;8.70;99.90
4390;DHT22;2209;48.982;8.406;2023-11-18T10:05:36;8.70;99.90
4390;DHT22;2209;48.982;8.406;2023-11-18T10:07:59;8.80;99.90
4390;DHT22;2209;48.982;8.406;2023-11-18T10:10:22;8.70;99.90
4390;DHT22;2209;48.982;8.406;2023-11-18T10:12:48;8.70;99.90
4390;DHT22;2209;48.982;8.406;2023-11-18T10:15:14;8.70;99.90
4390;DHT22;2209;48.982;8.406;2023-11-18T10:17:38;8.70;99.90
4390;DHT22;2209;48.982;8.406;2023-11-18T10:20:15;8.70;99.90
4390;DHT22;2209;48.982;8.406;2023-11-18T10:22:37;8.70;99.90
4390;DHT22;2209;48.982;8.406;2023-11-18T10:25:01;8.70;99.90
4390;DHT22;2209;48.982;8.406;2023-11-18T10:27:27;8.70;99.90
4390;DHT22;2209;48.982;8.406;2023-11-18T10:29:49;8.60;99.90
4390;DHT22;2209;48.982;8.406;2023-11-18T10:32:14;8.60;99.90
4390;DHT22;2209;48.982;8.406;2023-11-18T10:34:42;8.60;99.90
4390;DHT22;2209;48.982;8.406;2023-11-18T10:37:04;8.70;99.90
4390;DHT22;2209;48.982;8.406;2023-11-18T10:39:31;8.60;99.90
4390;DHT22;2209;48.982;8.406;2023-11-18T10:41:58;8.60;99.90
4390;DHT22;2209;48.982;8.406;2023-11-18T10:44:21;8.60;99.90
4390;DHT22;2209;48.982;8.406;2023-11-18T10:46:50;8.60;99.90
4390;DHT22;2209;48.982;8.406;2023-11-18T10:49:15;8.60;99.90
4390;DHT22;2209;48.982;8.406;2023-11-18T10:51:39;8.70;99.90
4390;DHT22;2209;48.982;8.406;2023-11-18T10:54:05;8.70;99.90
4390;DHT22;2209;48.982;8.406;2023-11-18T10:56:34;8.70;99.90
4390;DHT22;2209;48.982;8.406;2023-11-18T10:59:04;8.70;99.90
4390;DHT22;2209;48.982;8.406;2023-11-18T11:01:28;8.70;99.90
4390;DHT22;2209;48.982;8.406;2023-11-18T11:03:53;8.70;99.90
4390;DHT22;2209;48.982;8.406;2023-11-18T11:06:19;8.70;99.90
4390;DHT22;2209;48.982;8.406;2023-11-18T11:08:44;8.70;99.90
4390;DHT22;2209;48.982;8.406;2023-11-18T11:11:10;8.70;99.90
4390;DHT22;2209;48.982;8.406;2023-11-18T11:13:37;8.70;99.90
4390;DHT22;2209;48.982;8.406;2023-11-18T11:16:00;8.70;99.90
4390;DHT22;2209;48.982;8.406;2023-11-18T11:18:28;8.70;99.90
4390;DHT22;2209;48.982;8.406;2023-11-18T11:20:59;8.70;99.90
4390;DHT22;2209;48.982;8.406;2023-11-18T11:23:31;8.70;99.90
4390;DHT22;2209;48.982;8.406;2023-11-18T11:26:18;8.70;99.90
4390;DHT22;2209;48.982;8.406;2023-11-18T11:28:55;8.70;99.90
4390;DHT22;2209;48.982;8.406;2023-11-18T11:31:21;8.80;99.90
4390;DHT22;2209;48.982;8.406;2023-11-18T11:33:54;8.70;99.90
4390;DHT22;2209;48.982;8.406;2023-11-18T11:36:21;8.80;99.90
4390;DHT22;2209;48.982;8.406;2023-11-18T11:38:46;8.80;99.90
4390;DHT22;2209;48.982;8.406;2023-11-18T11:41:09;8.80;99.90
4390;DHT22;2209;48.982;8.406;2023-11-18T11:43:40;8.80;99.90
4390;DHT22;2209;48.982;8.406;2023-11-18T11:46:02;8.80;99.90
4390;DHT22;2209;48.982;8.406;2023-11-18T11:48:31;8.80;99.90
4390;DHT22;2209;48.982;8.406;2023-11-18T11:51:15;8.80;99.90
4390;DHT22;2209;48.982;8.406;2023-11-18T11:53:47;8.80;99.90
4390;DHT22;2209;48.982;8.406;2023-11-18T11:56:13;8.80;99.90
4390;DHT22;2209;48.982;8.406;2023-11-18T11:58:42;8.80;99.90
4390;DHT22;2209;48.982;8.406;2023-11-18T12:01:15;8.80;99.90
4390;DHT22;2209;48.982;8.406;2023-11-18T12:03:40;8.80;99.90
4390;DHT22;2209;48.982;8.406;2023-11-18T12:06:05;8.80;99.90
4390;DHT22;2209;48.982;8.406;2023-11-18T12:08:29;8.80;99.90
4390;DHT22;2209;48.982;8.406;2023-11-18T12:10:55;8.80;99.90
4390;DHT22;2209;48.982;8.406;2023-11-18T12:13:17;8.80;99.90
4390;DHT22;2209;48.982;8.406;2023-11-18T12:15:50;8.80;99.90
4390;DHT22;2209;48.982;8.406;2023-11-18T12:18:17;8.80;99.90
4390;DHT22;2209;48.982;8.406;2023-11-18T12:20:43;8.80;99.90
4390;DHT22;2209;48.982;8.406;2023-11-18T12:23:08;8.80;99.90
4390;DHT22;2209;48.982;8.406;2023-11-18T12:25:35;8.80;99.90
4390;DHT22;2209;48.982;8.406;2023-11-18T12:28:09;8.80;99.90
4390;DHT22;2209;48.982;8.406;2023-11-18T12:30:44;8.80;99.90
4390;DHT22;2209;48.982;8.406;2023-11-18T12:33:25;8.80;99.90
4390;DHT22;2209;48.982;8.406;2023-11-18T12:36:15;8.80;99.90
4390;DHT22;2209;48.982;8.406;2023-11-18T12:39:27;8.80;99.90
4390;DHT22;2209;48.982;8.406;2023-11-18T12:42:01;8.80;99.90
4390;DHT22;2209;48.982;8.406;2023-11-18T12:44:31;8.80;99.90
4390;DHT22;2209;48.982;8.406;2023-11-18T12:47:00;8.80;99.90
4390;DHT22;2209;48.982;8.406;2023-11-18T12:49:30;8.80;99.90
4390;DHT22;2209;48.982;8.406;2023-11-18T12:51:54;8.90;99.90
4390;DHT22;2209;48.982;8.406;2023-11-18T12:54:17;8.90;99.90
4390;DHT22;2209;48.982;8.406;2023-11-18T12:56:40;8.90;99.90
4390;DHT22;2209;48.982;8.406;2023-11-18T12:59:05;8.90;99.90
4390;DHT22;2209;48.982;8.406;2023-11-18T13:01:29;8.80;99.90
4390;DHT22;2209;48.982;8.406;2023-11-18T13:03:54;8.90;99.90
4390;DHT22;2209;48.982;8.406;2023-11-18T13:06:16;8.90;99.90
4390;DHT22;2209;48.982;8.406;2023-11-18T13:08:38;8.90;99.90
4390;DHT22;2209;48.982;8.406;2023-11-18T13:11:01;8.90;99.90
4390;DHT22;2209;48.982;8.406;2023-11-18T13:13:25;8.90;99.90
4390;DHT22;2209;48.982;8.406;2023-11-18T13:15:47;8.90;99.90
4390;DHT22;2209;48.982;8.406;2023-11-18T13:18:12;8.90;99.90
4390;DHT22;2209;48.982;8.406;2023-11-18T13:20:34;8.90;99.90
4390;DHT22;2209;48.982;8.406;2023-11-18T13:22:57;8.90;99.90
4390;DHT22;2209;48.982;8.406;2023-11-18T13:25:19;8.90;99.90
4390;DHT22;2209;48.982;8.406;2023-11-18T13:27:42;8.90;99.90
4390;DHT22;2209;48.982;8.406;2023-11-18T13:30:05;8.90;99.90
4390;DHT22;2209;48.982;8.406;2023-11-18T13:32:33;8.90;99.90
4390;DHT22;2209;48.982;8.406;2023-11-18T13:34:56;9.00;99.90
4390;DHT22;2209;48.982;8.406;2023-11-18T13:37:18;9.00;99.90
4390;DHT22;2209;48.982;8.406;2023-11-18T13:39:43;9.00;99.90
4390;DHT22;2209;48.982;8.406;2023-11-18T13:42:21;8.90;99.90
4390;DHT22;2209;48.982;8.406;2023-11-18T13:44:43;9.00;99.90
4390;DHT22;2209;48.982;8.406;2023-11-18T13:47:07;9.00;99.90
4390;DHT22;2209;48.982;8.406;2023-11-18T13:49:32;9.10;99.90
4390;DHT22;2209;48.982;8.406;2023-11-18T13:51:56;9.10;99.90
4390;DHT22;2209;48.982;8.406;2023-11-18T13:54:19;9.10;99.90
4390;DHT22;2209;48.982;8.406;2023-11-18T13:56:41;9.10;99.90
4390;DHT22;2209;48.982;8.406;2023-11-18T13:59:04;9.10;99.90
4390;DHT22;2209;48.982;8.406;2023-11-18T14:01:26;9.10;99.90
4390;DHT22;2209;48.982;8.406;2023-11-18T14:03:49;9.10;99.90
4390;DHT22;2209;48.982;8.406;2023-11-18T14:06:12;9.10;99.90
4390;DHT22;2209;48.982;8.406;2023-11-18T14:08:39;9.10;99.90
4390;DHT22;2209;48.982;8.406;2023-11-18T14:11:03;9.10;99.90
4390;DHT22;2209;48.982;8.406;2023-11-18T14:13:25;9.10;99.90
4390;DHT22;2209;48.982;8.406;2023-11-18T14:15:51;9.10;99.90
4390;DHT22;2209;48.982;8.406;2023-11-18T14:18:16;9.10;99.90
4390;DHT22;2209;48.982;8.406;2023-11-18T14:20:38;9.10;99.90
4390;DHT22;2209;48.982;8.406;2023-11-18T14:23:00;9.10;99.90
4390;DHT22;2209;48.982;8.406;2023-11-18T14:25:25;9.10;99.90
4390;DHT22;2209;48.982;8.406;2023-11-18T14:27:48;9.10;99.90
4390;DHT22;2209;48.982;8.406;2023-11-18T14:30:11;9.10;99.90
4390;DHT22;2209;48.982;8.406;2023-11-18T14:32:34;9.10;99.90
4390;DHT22;2209;48.982;8.406;2023-11-18T14:34:56;9.10;99.90
4390;DHT22;2209;48.982;8.406;2023-11-18T14:37:19;9.10;99.90
4390;DHT22;2209;48.982;8.406;2023-11-18T14:39:41;9.10;99.90
4390;DHT22;2209;48.982;8.406;2023-11-18T14:42:05;9.10;99.90
4390;DHT22;2209;48.982;8.406;2023-11-18T14:44:27;9.10;99.90
4390;DHT22;2209;48.982;8.406;2023-11-18T14:46:49;9.10;99.90
4390;DHT22;2209;48.982;8.406;2023-11-18T14:49:12;9.10;99.90
4390;DHT22;2209;48.982;8.406;2023-11-18T14:51:34;9.10;99.90
4390;DHT22;2209;48.982;8.406;2023-11-18T14:53:56;9.10;99.90
4390;DHT22;2209;48.982;8.406;2023-11-18T14:56:19;9.10;99.90
4390;DHT22;2209;48.982;8.406;2023-11-18T14:58:42;9.10;99.90
4390;DHT22;2209;48.982;8.406;2023-11-18T15:01:05;9.10;99.90
4390;DHT22;2209;48.982;8.406;2023-11-18T15:03:28;9.10;99.90
4390;DHT22;2209;48.982;8.406;2023-11-18T15:05:51;9.10;99.90
4390;DHT22;2209;48.982;8.406;2023-11-18T15:08:13;9.10;99.90
4390;DHT22;2209;48.982;8.406;2023-11-18T15:10:36;9.20;99.90
4390;DHT22;2209;48.982;8.406;2023-11-18T15:13:00;9.10;99.90
4390;DHT22;2209;48.982;8.406;2023-11-18T15:15:25;9.10;99.90
4390;DHT22;2209;48.982;8.406;2023-11-18T15:17:52;9.10;99.90
4390;DHT22;2209;48.982;8.406;2023-11-18T15:20:14;9.10;99.90
4390;DHT22;2209;48.982;8.406;2023-11-18T15:22:36;9.10;99.90
4390;DHT22;2209;48.982;8.406;2023-11-18T15:24:58;9.10;99.90
4390;DHT22;2209;48.982;8.406;2023-11-18T15:27:21;9.10;99.90
4390;DHT22;2209;48.982;8.406;2023-11-18T15:29:44;9.10;99.90
4390;DHT22;2209;48.982;8.406;2023-11-18T15:32:11;9.10;99.90
4390;DHT22;2209;48.982;8.406;2023-11-18T15:34:34;9.10;99.90
4390;DHT22;2209;48.982;8.406;2023-11-18T15:36:56;9.10;99.90
4390;DHT22;2209;48.982;8.406;2023-11-18T15:39:21;9.10;99.90
4390;DHT22;2209;48.982;8.406;2023-11-18T15:41:44;9.10;99.90
4390;DHT22;2209;48.982;8.406;2023-11-18T15:44:06;9.10;99.90
4390;DHT22;2209;48.982;8.406;2023-11-18T15:46:28;9.10;99.90
4390;DHT22;2209;48.982;8.406;2023-11-18T15:48:52;9.10;99.90
4390;DHT22;2209;48.982;8.406;2023-11-18T15:51:16;9.10;99.90
4390;DHT22;2209;48.982;8.406;2023-11-18T15:53:40;9.10;99.90
4390;DHT22;2209;48.982;8.406;2023-11-18T15:56:03;9.10;99.90